Woodyard, Illinois
Current Conditions -  °F | °C
As of 4:55 PM on Monday 24 Nov 2014 (Local Time) from KENL Reporting Station
Broken Clouds Broken Clouds  
Wind Chill: 32°   Ceiling: 6000
Heat Index: 39°   Visibility: 10mi
Dew Point: 28°   Wind: 10mph
Humidity: 66%   Direction: 280°W
Pressure: 29.86"   Gusts: NA
Location:  38.8463°N, 89.0894°W
Report Text: KENL 242255Z AUTO 28009KT 10SM BKN060 04/M02 A2986 RMK AO2 T00391020
Loading
Personal Weather Stations






























Interactive Weather Map New forecast layout! Learn more

10-Day Weather Forecast

Advertisements
Track Severe Weather on mobile